createdAt,value
2017-10-04T00:00:30.388Z,0.00
2017-10-04T00:01:30.312Z,0.00
2017-10-04T00:02:30.224Z,0.00
2017-10-04T00:03:30.151Z,0.00
2017-10-04T00:04:30.074Z,0.00
2017-10-04T00:05:29.986Z,0.00
2017-10-04T00:06:29.901Z,0.00
2017-10-04T00:07:29.822Z,0.00
2017-10-04T00:08:29.736Z,0.00
2017-10-04T00:09:29.654Z,0.00
2017-10-04T00:10:29.573Z,0.00
2017-10-04T00:11:29.484Z,0.00
2017-10-04T00:12:29.407Z,0.00
2017-10-04T00:13:29.328Z,0.00
2017-10-04T00:14:29.247Z,0.00
2017-10-04T00:15:29.157Z,0.00
2017-10-04T00:16:29.082Z,0.00
2017-10-04T00:17:28.998Z,0.00
2017-10-04T00:18:28.938Z,0.00
2017-10-04T00:19:28.834Z,0.00
2017-10-04T00:20:28.747Z,0.00
2017-10-04T00:21:28.668Z,0.00
2017-10-04T00:22:28.582Z,0.00
2017-10-04T00:23:28.545Z,0.00
2017-10-04T00:24:28.440Z,0.00
2017-10-04T00:25:28.349Z,0.00
2017-10-04T00:26:28.253Z,0.00
2017-10-04T00:27:28.181Z,0.00
2017-10-04T00:28:28.098Z,0.00
2017-10-04T00:29:28.011Z,0.00
2017-10-04T00:30:27.923Z,0.00
2017-10-04T00:31:27.839Z,0.00
2017-10-04T00:32:27.759Z,0.00
2017-10-04T00:33:27.676Z,0.00
2017-10-04T00:34:27.595Z,0.00
2017-10-04T00:35:27.533Z,0.00
2017-10-04T00:36:27.429Z,0.00
2017-10-04T00:37:27.354Z,0.00
2017-10-04T00:38:27.275Z,0.00
2017-10-04T00:39:27.189Z,0.00
2017-10-04T00:40:27.105Z,0.00
2017-10-04T00:41:27.022Z,0.00
2017-10-04T00:42:26.937Z,0.00
2017-10-04T00:43:26.861Z,0.00
2017-10-04T00:44:26.774Z,0.00
2017-10-04T00:45:26.699Z,0.00
2017-10-04T00:46:26.616Z,0.00
2017-10-04T00:47:26.549Z,0.00
2017-10-04T00:48:26.446Z,0.00
2017-10-04T00:49:26.374Z,0.00
2017-10-04T00:50:26.288Z,0.00
2017-10-04T00:51:26.206Z,0.00
2017-10-04T00:52:26.132Z,0.00
2017-10-04T00:53:26.034Z,0.00
2017-10-04T00:54:25.961Z,0.00
2017-10-04T00:55:25.874Z,0.00
2017-10-04T00:56:25.792Z,0.00
2017-10-04T00:57:25.706Z,0.00
2017-10-04T00:58:25.626Z,0.00
2017-10-04T00:59:25.544Z,0.00
2017-10-04T01:00:25.474Z,0.00
2017-10-04T01:01:25.388Z,0.00
2017-10-04T01:02:25.295Z,0.00
2017-10-04T01:03:25.213Z,0.00
2017-10-04T01:04:25.131Z,0.00
2017-10-04T01:05:25.048Z,0.00
2017-10-04T01:06:24.969Z,0.00
2017-10-04T01:07:24.902Z,0.00
2017-10-04T01:08:24.802Z,0.00
2017-10-04T01:09:24.728Z,0.00
2017-10-04T01:10:24.655Z,0.00
2017-10-04T01:11:24.562Z,0.00
2017-10-04T01:12:24.477Z,0.00
2017-10-04T01:13:24.395Z,0.00
2017-10-04T01:14:24.320Z,0.00
2017-10-04T01:15:24.228Z,0.00
2017-10-04T01:16:24.153Z,0.00
2017-10-04T01:17:24.074Z,0.00
2017-10-04T01:18:23.984Z,0.00
2017-10-04T01:19:23.899Z,0.00
2017-10-04T01:20:23.937Z,0.00
2017-10-04T01:21:23.741Z,0.00
2017-10-04T01:22:23.660Z,0.00
2017-10-04T01:23:23.574Z,0.00
2017-10-04T01:24:23.501Z,0.00
2017-10-04T01:25:23.409Z,0.00
2017-10-04T01:26:23.327Z,0.00
2017-10-04T01:27:23.243Z,0.00
2017-10-04T01:28:23.162Z,0.00
2017-10-04T01:29:23.092Z,0.00
2017-10-04T01:30:22.994Z,0.00
2017-10-04T01:31:22.915Z,0.00
2017-10-04T01:32:22.830Z,0.00
2017-10-04T01:33:22.750Z,0.00
2017-10-04T01:34:22.676Z,0.00
2017-10-04T01:35:22.583Z,0.00
2017-10-04T01:36:22.498Z,0.00
2017-10-04T01:37:22.426Z,0.00
2017-10-04T01:38:22.335Z,0.00
2017-10-04T01:39:22.263Z,0.00
2017-10-04T01:40:22.170Z,0.00
2017-10-04T01:41:22.091Z,0.00
2017-10-04T01:42:22.008Z,0.00
2017-10-04T01:43:21.920Z,0.00
2017-10-04T01:44:21.840Z,0.00
2017-10-04T01:45:21.762Z,0.00
2017-10-04T01:46:21.677Z,0.00
2017-10-04T01:47:21.597Z,0.00
2017-10-04T01:48:21.512Z,0.00
2017-10-04T01:49:21.428Z,0.00
2017-10-04T01:50:21.347Z,0.00
2017-10-04T01:51:21.264Z,0.00
2017-10-04T01:52:21.186Z,0.00
2017-10-04T01:53:21.099Z,0.00
2017-10-04T01:54:21.033Z,0.00
2017-10-04T01:55:20.936Z,0.00
2017-10-04T01:56:20.859Z,0.00
2017-10-04T01:57:20.771Z,0.00
2017-10-04T01:58:20.694Z,0.00
2017-10-04T01:59:20.608Z,0.00
2017-10-04T02:00:20.520Z,0.00
2017-10-04T02:01:20.439Z,0.00
2017-10-04T02:02:20.353Z,0.00
2017-10-04T02:03:20.272Z,0.00
2017-10-04T02:04:20.202Z,0.00
2017-10-04T02:05:20.107Z,0.00
2017-10-04T02:06:20.026Z,0.00
2017-10-04T02:07:19.944Z,0.00
2017-10-04T02:08:19.862Z,0.00
2017-10-04T02:09:19.783Z,0.00
2017-10-04T02:10:19.699Z,0.00
2017-10-04T02:11:19.612Z,0.00
2017-10-04T02:12:19.547Z,0.00
2017-10-04T02:13:19.450Z,0.00
2017-10-04T02:14:19.366Z,0.00
2017-10-04T02:15:19.280Z,0.00
2017-10-04T02:16:19.198Z,0.00
2017-10-04T02:17:19.121Z,0.00
2017-10-04T02:18:19.034Z,0.00
2017-10-04T02:19:18.949Z,0.00
2017-10-04T02:20:18.867Z,0.00
2017-10-04T02:21:18.793Z,0.00
2017-10-04T02:22:18.700Z,0.00
2017-10-04T02:23:18.619Z,0.00
2017-10-04T02:24:18.540Z,0.00
2017-10-04T02:25:18.459Z,0.00
2017-10-04T02:26:18.371Z,0.00
2017-10-04T02:27:18.288Z,0.00
2017-10-04T02:28:18.211Z,0.00
2017-10-04T02:29:18.126Z,0.00
2017-10-04T02:30:18.042Z,0.00
2017-10-04T02:31:17.952Z,0.00
2017-10-04T02:32:17.878Z,0.00
2017-10-04T02:33:17.799Z,0.00
2017-10-04T02:34:17.713Z,0.00
2017-10-04T02:35:17.650Z,0.00
2017-10-04T02:36:17.547Z,0.00
2017-10-04T02:37:17.465Z,0.00
2017-10-04T02:38:17.381Z,0.00
2017-10-04T02:39:17.297Z,0.00
2017-10-04T02:40:17.220Z,0.00
2017-10-04T02:41:17.148Z,0.00
2017-10-04T02:42:17.088Z,0.00
2017-10-04T02:43:16.972Z,0.00
2017-10-04T02:44:16.902Z,0.00
2017-10-04T02:45:16.799Z,0.00
2017-10-04T02:46:16.720Z,0.00
2017-10-04T02:47:16.637Z,0.00
2017-10-04T02:48:16.560Z,0.00
2017-10-04T02:49:16.473Z,0.00
2017-10-04T02:50:16.392Z,0.00
2017-10-04T02:51:16.309Z,0.00
2017-10-04T02:52:16.232Z,0.00
2017-10-04T02:53:16.143Z,0.00
2017-10-04T02:54:16.085Z,0.00
2017-10-04T02:55:15.979Z,0.00
2017-10-04T02:56:15.914Z,0.00
2017-10-04T02:57:15.814Z,0.00
2017-10-04T02:58:15.735Z,0.00
2017-10-04T02:59:15.655Z,0.00
2017-10-04T03:00:15.568Z,0.00
2017-10-04T03:01:15.511Z,0.00
2017-10-04T03:02:15.401Z,0.00
2017-10-04T03:03:15.330Z,0.00
2017-10-04T03:04:15.241Z,0.00
2017-10-04T03:05:15.156Z,0.00
2017-10-04T03:06:15.073Z,0.00
2017-10-04T03:07:14.997Z,0.00
2017-10-04T03:08:14.905Z,0.00
2017-10-04T03:09:14.827Z,0.00
2017-10-04T03:10:14.743Z,0.00
2017-10-04T03:11:14.664Z,0.00
2017-10-04T03:12:15.340Z,0.00
2017-10-04T03:13:14.496Z,0.00
2017-10-04T03:14:14.412Z,0.00
2017-10-04T03:15:14.335Z,0.00
2017-10-04T03:16:14.246Z,0.00
2017-10-04T03:17:14.161Z,0.00
2017-10-04T03:18:14.088Z,0.00
2017-10-04T03:19:14.002Z,0.00
2017-10-04T03:20:13.920Z,0.00
2017-10-04T03:21:13.841Z,0.00
2017-10-04T03:22:13.749Z,0.00
2017-10-04T03:23:13.674Z,0.00
2017-10-04T03:24:13.604Z,0.00
2017-10-04T03:25:13.508Z,0.00
2017-10-04T03:26:13.423Z,0.00
2017-10-04T03:27:13.343Z,0.00
2017-10-04T03:28:13.257Z,0.00
2017-10-04T03:29:13.169Z,0.00
2017-10-04T03:30:13.094Z,0.00
2017-10-04T03:31:13.020Z,0.00
2017-10-04T03:32:12.926Z,0.00
2017-10-04T03:33:12.854Z,0.00
2017-10-04T03:34:12.764Z,0.00
2017-10-04T03:35:12.676Z,0.00
2017-10-04T03:36:12.602Z,0.00
2017-10-04T03:37:12.517Z,0.00
2017-10-04T03:38:12.433Z,0.00
2017-10-04T03:39:12.351Z,0.00
2017-10-04T03:40:12.271Z,0.00
2017-10-04T03:41:12.187Z,0.00
2017-10-04T03:42:12.101Z,0.00
2017-10-04T03:43:12.020Z,0.00
2017-10-04T03:44:11.937Z,0.00
2017-10-04T03:45:11.884Z,0.00
2017-10-04T03:46:11.781Z,0.00
2017-10-04T03:47:11.692Z,0.00
2017-10-04T03:48:11.610Z,0.00
2017-10-04T03:49:11.529Z,0.00
2017-10-04T03:50:11.440Z,0.00
2017-10-04T03:51:11.359Z,0.00
2017-10-04T03:52:11.307Z,0.00
2017-10-04T03:53:11.196Z,0.00
2017-10-04T03:54:11.118Z,0.00
2017-10-04T03:55:11.037Z,0.00
2017-10-04T03:56:10.952Z,0.00
2017-10-04T03:57:10.870Z,0.00
2017-10-04T03:58:10.783Z,0.00
2017-10-04T03:59:10.701Z,0.00
2017-10-04T04:00:10.620Z,0.00
2017-10-04T04:01:10.538Z,0.00
2017-10-04T04:02:10.459Z,0.00
2017-10-04T04:03:10.371Z,0.00
2017-10-04T04:04:10.285Z,0.00
2017-10-04T04:05:10.212Z,0.00
2017-10-04T04:06:10.125Z,0.00
2017-10-04T04:07:10.042Z,0.00
2017-10-04T04:08:09.962Z,0.00
2017-10-04T04:09:09.875Z,0.00
2017-10-04T04:10:09.799Z,0.00
2017-10-04T04:11:09.712Z,0.00
2017-10-04T04:12:09.642Z,0.00
2017-10-04T04:13:09.549Z,0.00
2017-10-04T04:14:09.464Z,0.00
2017-10-04T04:15:09.378Z,0.00
2017-10-04T04:16:09.300Z,0.00
2017-10-04T04:17:09.212Z,0.00
2017-10-04T04:18:09.165Z,0.00
2017-10-04T04:19:09.058Z,0.00
2017-10-04T04:20:08.968Z,0.00
2017-10-04T04:21:08.889Z,0.00
2017-10-04T04:22:08.803Z,0.00
2017-10-04T04:23:08.715Z,0.00
2017-10-04T04:24:08.636Z,0.00
2017-10-04T04:25:08.572Z,0.00
2017-10-04T04:26:08.500Z,0.00
2017-10-04T04:27:08.400Z,0.00
2017-10-04T04:28:08.321Z,0.00
2017-10-04T04:29:08.220Z,0.00
2017-10-04T04:30:08.138Z,0.00
2017-10-04T04:31:08.054Z,0.00
2017-10-04T04:32:07.979Z,0.00
2017-10-04T04:33:07.888Z,0.00
2017-10-04T04:34:07.806Z,0.00
2017-10-04T04:35:07.729Z,0.00
2017-10-04T04:36:07.642Z,0.00
2017-10-04T04:37:07.565Z,0.00
2017-10-04T04:38:07.471Z,0.00
2017-10-04T04:39:07.416Z,0.00
2017-10-04T04:40:07.351Z,0.00
2017-10-04T04:41:07.225Z,0.00
2017-10-04T04:42:07.161Z,0.00
2017-10-04T04:43:07.059Z,0.00
2017-10-04T04:44:07.004Z,0.00
2017-10-04T04:45:06.893Z,0.00
2017-10-04T04:46:06.822Z,0.00
2017-10-04T04:47:06.729Z,0.00
2017-10-04T04:48:06.651Z,0.00
2017-10-04T04:49:06.565Z,0.00
2017-10-04T04:50:06.475Z,0.00
2017-10-04T04:51:06.397Z,0.00
2017-10-04T04:52:06.322Z,0.00
2017-10-04T04:53:06.222Z,0.00
2017-10-04T04:54:06.147Z,0.00
2017-10-04T04:55:06.070Z,0.00
2017-10-04T04:56:05.981Z,0.00
2017-10-04T04:57:05.891Z,0.00
2017-10-04T04:58:05.811Z,0.00
2017-10-04T04:59:05.735Z,0.00
2017-10-04T05:00:05.648Z,0.00
2017-10-04T05:01:05.561Z,0.00
2017-10-04T05:02:05.478Z,0.00
2017-10-04T05:03:05.393Z,0.00
2017-10-04T05:04:05.310Z,0.00
2017-10-04T05:05:05.226Z,0.00
2017-10-04T05:06:05.140Z,0.00
2017-10-04T05:07:05.059Z,0.00
2017-10-04T05:08:04.978Z,0.00
2017-10-04T05:09:04.895Z,0.00
2017-10-04T05:10:04.822Z,0.00
2017-10-04T05:11:04.731Z,0.00
2017-10-04T05:12:04.647Z,0.00
2017-10-04T05:13:04.557Z,0.00
2017-10-04T05:14:04.477Z,0.00
2017-10-04T05:15:04.388Z,0.00
2017-10-04T05:16:04.310Z,0.00
2017-10-04T05:17:04.237Z,0.00
2017-10-04T05:18:04.144Z,0.00
2017-10-04T05:19:04.062Z,0.00
2017-10-04T05:20:03.996Z,0.00
2017-10-04T05:21:03.889Z,0.00
2017-10-04T05:22:03.816Z,0.00
2017-10-04T05:23:03.723Z,0.00
2017-10-04T05:24:03.646Z,0.00
2017-10-04T05:25:03.564Z,0.00
2017-10-04T05:26:03.476Z,0.00
2017-10-04T05:27:03.392Z,0.00
2017-10-04T05:28:03.312Z,0.00
2017-10-04T05:29:03.224Z,0.00
2017-10-04T05:30:03.142Z,0.00
2017-10-04T05:31:03.059Z,5.63
2017-10-04T05:32:02.980Z,5.63
2017-10-04T05:33:02.891Z,5.63
2017-10-04T05:34:02.809Z,5.63
2017-10-04T05:35:02.728Z,5.63
2017-10-04T05:36:02.641Z,5.63
2017-10-04T05:37:02.559Z,5.63
2017-10-04T05:38:02.475Z,11.25
2017-10-04T05:39:02.392Z,11.25
2017-10-04T05:40:02.310Z,11.25
2017-10-04T05:41:02.228Z,11.25
2017-10-04T05:42:02.138Z,11.25
2017-10-04T05:43:02.060Z,11.25
2017-10-04T05:44:01.975Z,11.25
2017-10-04T05:45:01.892Z,16.88
2017-10-04T05:46:01.807Z,16.88
2017-10-04T05:47:01.728Z,16.88
2017-10-04T05:48:01.651Z,22.50
2017-10-04T05:49:01.556Z,22.50
2017-10-04T05:50:01.473Z,22.50
2017-10-04T05:51:01.394Z,22.50
2017-10-04T05:52:03.319Z,28.13
2017-10-04T05:53:01.220Z,28.13
2017-10-04T05:54:01.142Z,33.75
2017-10-04T05:55:01.050Z,33.75
2017-10-04T05:56:00.972Z,33.75
2017-10-04T05:57:00.892Z,39.38
2017-10-04T05:58:00.802Z,39.38
2017-10-04T05:59:00.719Z,39.38
2017-10-04T06:00:00.633Z,39.38
2017-10-04T06:01:00.546Z,39.38
2017-10-04T06:02:00.458Z,39.38
2017-10-04T06:03:00.378Z,39.38
2017-10-04T06:04:00.293Z,39.38
2017-10-04T06:05:00.226Z,39.38
2017-10-04T06:06:00.127Z,39.38
2017-10-04T06:07:00.041Z,39.38
2017-10-04T06:07:59.952Z,39.38
2017-10-04T06:08:59.873Z,39.38
2017-10-04T06:09:59.791Z,39.38
2017-10-04T06:10:59.705Z,39.38
2017-10-04T06:11:59.620Z,39.38
2017-10-04T06:12:59.535Z,39.38
2017-10-04T06:13:59.449Z,39.38
2017-10-04T06:14:59.373Z,45.00
2017-10-04T06:15:59.283Z,45.00
2017-10-04T06:16:59.200Z,45.00
2017-10-04T06:17:59.121Z,45.00
2017-10-04T06:18:59.039Z,45.00
2017-10-04T06:19:58.947Z,45.00
2017-10-04T06:20:58.892Z,45.00
2017-10-04T06:21:58.783Z,45.00
2017-10-04T06:22:58.701Z,45.00
2017-10-04T06:23:58.616Z,45.00
2017-10-04T06:24:58.552Z,45.00
2017-10-04T06:25:58.450Z,45.00
2017-10-04T06:26:58.373Z,45.00
2017-10-04T06:27:58.303Z,45.00
2017-10-04T06:28:58.200Z,45.00
2017-10-04T06:29:58.113Z,45.00
2017-10-04T06:30:58.030Z,50.63
2017-10-04T06:31:57.944Z,50.63
2017-10-04T06:32:57.859Z,50.63
2017-10-04T06:33:57.787Z,56.25
2017-10-04T06:34:57.695Z,56.25
2017-10-04T06:35:57.631Z,61.88
2017-10-04T06:36:57.546Z,67.50
2017-10-04T06:37:57.439Z,73.13
2017-10-04T06:38:57.362Z,78.75
2017-10-04T06:39:57.274Z,84.38
2017-10-04T06:40:57.191Z,90.00
2017-10-04T06:41:57.107Z,101.25
2017-10-04T06:42:57.023Z,106.88
2017-10-04T06:43:56.943Z,118.13
2017-10-04T06:44:56.855Z,123.75
2017-10-04T06:45:56.779Z,135.00
2017-10-04T06:46:56.689Z,140.63
2017-10-04T06:47:56.605Z,151.88
2017-10-04T06:48:56.517Z,151.88
2017-10-04T06:49:56.433Z,157.50
2017-10-04T06:50:56.356Z,163.13
2017-10-04T06:51:56.272Z,163.13
2017-10-04T06:52:56.822Z,157.50
2017-10-04T06:53:56.124Z,157.50
2017-10-04T06:54:56.016Z,151.88
2017-10-04T06:55:55.927Z,151.88
2017-10-04T06:56:55.849Z,146.25
2017-10-04T06:57:55.761Z,140.63
2017-10-04T06:58:55.673Z,140.63
2017-10-04T06:59:55.602Z,135.00
2017-10-04T07:00:55.550Z,135.00
2017-10-04T07:01:55.426Z,129.38
2017-10-04T07:02:55.339Z,129.38
2017-10-04T07:03:55.258Z,129.38
2017-10-04T07:04:55.166Z,129.38
2017-10-04T07:05:55.089Z,129.38
2017-10-04T07:06:55.004Z,129.38
2017-10-04T07:07:54.925Z,129.38
2017-10-04T07:08:54.833Z,129.38
2017-10-04T07:09:54.749Z,135.00
2017-10-04T07:10:54.672Z,135.00
2017-10-04T07:11:54.585Z,135.00
2017-10-04T07:12:54.504Z,135.00
2017-10-04T07:13:54.446Z,135.00
2017-10-04T07:14:54.331Z,140.63
2017-10-04T07:15:54.245Z,135.00
2017-10-04T07:16:54.170Z,135.00
2017-10-04T07:17:54.082Z,135.00
2017-10-04T07:18:54.007Z,129.38
2017-10-04T07:19:53.910Z,129.38
2017-10-04T07:20:53.861Z,129.38
2017-10-04T07:21:53.748Z,129.38
2017-10-04T07:22:53.660Z,129.38
2017-10-04T07:23:53.578Z,135.00
2017-10-04T07:24:53.491Z,140.63
2017-10-04T07:25:53.408Z,151.88
2017-10-04T07:26:53.330Z,157.50
2017-10-04T07:27:53.253Z,168.75
2017-10-04T07:28:53.159Z,174.38
2017-10-04T07:29:53.080Z,174.38
2017-10-04T07:30:52.996Z,180.00
2017-10-04T07:31:52.908Z,185.63
2017-10-04T07:32:52.822Z,185.63
2017-10-04T07:33:52.743Z,185.63
2017-10-04T07:34:52.676Z,185.63
2017-10-04T07:35:52.576Z,191.25
2017-10-04T07:36:52.490Z,191.25
2017-10-04T07:37:52.404Z,191.25
2017-10-04T07:38:52.326Z,185.63
2017-10-04T07:39:52.240Z,185.63
2017-10-04T07:40:52.182Z,191.25
2017-10-04T07:41:52.096Z,191.25
2017-10-04T07:42:51.990Z,196.88
2017-10-04T07:43:51.910Z,196.88
2017-10-04T07:44:51.829Z,202.50
2017-10-04T07:45:51.732Z,213.75
2017-10-04T07:46:51.668Z,219.38
2017-10-04T07:47:51.579Z,225.00
2017-10-04T07:48:51.496Z,225.00
2017-10-04T07:49:51.400Z,213.75
2017-10-04T07:50:51.333Z,208.13
2017-10-04T07:51:51.238Z,202.50
2017-10-04T07:52:51.155Z,191.25
2017-10-04T07:53:51.071Z,191.25
2017-10-04T07:54:51.018Z,196.88
2017-10-04T07:55:50.911Z,202.50
2017-10-04T07:56:50.819Z,208.13
2017-10-04T07:57:50.732Z,208.13
2017-10-04T07:58:50.657Z,213.75
2017-10-04T07:59:50.584Z,236.25
2017-10-04T08:00:50.485Z,270.00
2017-10-04T08:01:50.405Z,281.25
2017-10-04T08:02:50.317Z,281.25
2017-10-04T08:03:50.249Z,258.75
2017-10-04T08:04:50.153Z,258.75
2017-10-04T08:05:50.065Z,275.63
2017-10-04T08:06:49.993Z,292.50
2017-10-04T08:07:49.903Z,309.38
2017-10-04T08:08:49.818Z,315.00
2017-10-04T08:09:49.734Z,315.00
2017-10-04T08:10:49.654Z,354.38
2017-10-04T08:11:49.582Z,331.88
2017-10-04T08:12:49.500Z,331.88
2017-10-04T08:13:49.405Z,320.63
2017-10-04T08:14:49.314Z,292.50
2017-10-04T08:15:49.235Z,286.88
2017-10-04T08:16:49.150Z,281.25
2017-10-04T08:17:49.069Z,303.75
2017-10-04T08:18:48.986Z,270.00
2017-10-04T08:19:48.898Z,241.88
2017-10-04T08:20:48.821Z,225.00
2017-10-04T08:21:48.752Z,213.75
2017-10-04T08:22:48.651Z,202.50
2017-10-04T08:23:48.570Z,196.88
2017-10-04T08:24:48.482Z,185.63
2017-10-04T08:25:48.406Z,180.00
2017-10-04T08:26:48.362Z,174.38
2017-10-04T08:27:48.236Z,168.75
2017-10-04T08:28:48.158Z,163.13
2017-10-04T08:29:48.065Z,163.13
2017-10-04T08:30:47.982Z,163.13
2017-10-04T08:31:47.908Z,157.50
2017-10-04T08:32:47.824Z,157.50
2017-10-04T08:33:47.734Z,157.50
2017-10-04T08:34:47.648Z,157.50
2017-10-04T08:35:47.566Z,157.50
2017-10-04T08:36:47.486Z,163.13
2017-10-04T08:37:47.402Z,163.13
2017-10-04T08:38:47.317Z,168.75
2017-10-04T08:39:47.233Z,174.38
2017-10-04T08:40:47.150Z,180.00
2017-10-04T08:41:47.066Z,196.88
2017-10-04T08:42:46.981Z,196.88
2017-10-04T08:43:46.900Z,196.88
2017-10-04T08:44:46.817Z,202.50
2017-10-04T08:45:46.735Z,213.75
2017-10-04T08:46:46.654Z,225.00
2017-10-04T08:47:46.575Z,253.13
2017-10-04T08:48:46.481Z,298.13
2017-10-04T08:49:46.401Z,337.50
2017-10-04T08:50:46.320Z,393.75
2017-10-04T08:51:46.235Z,416.25
2017-10-04T08:52:46.160Z,405.00
2017-10-04T08:53:46.071Z,405.00
2017-10-04T08:54:46.010Z,399.38
2017-10-04T08:55:45.902Z,410.63
2017-10-04T08:56:45.814Z,455.63
2017-10-04T08:57:45.734Z,517.50
2017-10-04T08:58:45.650Z,607.50
2017-10-04T08:59:45.573Z,680.63
2017-10-04T09:00:45.481Z,781.88
2017-10-04T09:01:45.402Z,1001.25
2017-10-04T09:02:45.314Z,1288.13
2017-10-04T09:03:45.235Z,1434.38
2017-10-04T09:04:45.150Z,1282.50
2017-10-04T09:05:45.075Z,1305.00
2017-10-04T09:06:44.987Z,1198.13
2017-10-04T09:07:44.904Z,1085.63
2017-10-04T09:08:44.822Z,1029.38
2017-10-04T09:09:44.742Z,1006.88
2017-10-04T09:10:44.664Z,956.25
2017-10-04T09:11:44.578Z,877.50
2017-10-04T09:12:44.494Z,838.13
2017-10-04T09:13:44.425Z,826.88
2017-10-04T09:14:44.330Z,838.13
2017-10-04T09:15:44.250Z,855.00
2017-10-04T09:16:44.162Z,804.38
2017-10-04T09:17:44.085Z,753.75
2017-10-04T09:18:43.998Z,714.38
2017-10-04T09:19:43.922Z,680.63
2017-10-04T09:20:43.841Z,635.63
2017-10-04T09:21:43.754Z,579.38
2017-10-04T09:22:43.673Z,528.75
2017-10-04T09:23:43.586Z,489.38
2017-10-04T09:24:43.528Z,472.50
2017-10-04T09:25:43.427Z,478.13
2017-10-04T09:26:43.350Z,478.13
2017-10-04T09:27:43.276Z,517.50
2017-10-04T09:28:43.174Z,568.13
2017-10-04T09:29:43.095Z,658.13
2017-10-04T09:30:43.017Z,770.63
2017-10-04T09:31:42.954Z,832.50
2017-10-04T09:32:42.852Z,849.38
2017-10-04T09:33:42.771Z,866.25
2017-10-04T09:34:42.686Z,860.63
2017-10-04T09:35:42.612Z,849.38
2017-10-04T09:36:42.522Z,849.38
2017-10-04T09:37:42.442Z,877.50
2017-10-04T09:38:42.360Z,950.63
2017-10-04T09:39:42.279Z,995.63
2017-10-04T09:40:42.192Z,1085.63
2017-10-04T09:41:42.120Z,1147.50
2017-10-04T09:42:42.033Z,1096.88
2017-10-04T09:43:41.951Z,1153.13
2017-10-04T09:44:41.869Z,1147.50
2017-10-04T09:45:41.790Z,1136.25
2017-10-04T09:46:41.708Z,1198.13
2017-10-04T09:47:41.635Z,1260.00
2017-10-04T09:48:41.544Z,1546.88
2017-10-04T09:49:41.463Z,1693.13
2017-10-04T09:50:41.383Z,1445.63
2017-10-04T09:51:41.328Z,1648.13
2017-10-04T09:52:41.226Z,1603.13
2017-10-04T09:53:41.145Z,1659.38
2017-10-04T09:54:41.061Z,1890.00
2017-10-04T09:55:40.989Z,1805.63
2017-10-04T09:56:40.907Z,1698.75
2017-10-04T09:57:40.821Z,1659.38
2017-10-04T09:58:40.739Z,1530.00
2017-10-04T09:59:40.662Z,1411.88
2017-10-04T10:00:40.586Z,1417.50
2017-10-04T10:01:40.506Z,1344.38
2017-10-04T10:02:40.428Z,1192.50
2017-10-04T10:03:40.346Z,1215.00
2017-10-04T10:04:40.264Z,1198.13
2017-10-04T10:05:40.197Z,1147.50
2017-10-04T10:06:40.110Z,1085.63
2017-10-04T10:07:40.035Z,1029.38
2017-10-04T10:08:39.955Z,961.88
2017-10-04T10:09:39.871Z,916.88
2017-10-04T10:10:41.556Z,877.50
2017-10-04T10:11:39.709Z,866.25
2017-10-04T10:12:39.633Z,849.38
2017-10-04T10:13:39.553Z,849.38
2017-10-04T10:14:39.473Z,826.88
2017-10-04T10:15:39.399Z,821.25
2017-10-04T10:16:39.316Z,843.75
2017-10-04T10:17:39.236Z,838.13
2017-10-04T10:18:39.177Z,793.13
2017-10-04T10:19:39.074Z,776.25
2017-10-04T10:20:38.994Z,759.38
2017-10-04T10:21:38.922Z,725.63
2017-10-04T10:22:38.836Z,731.25
2017-10-04T10:23:38.759Z,742.50
2017-10-04T10:24:38.676Z,736.88
2017-10-04T10:25:38.595Z,725.63
2017-10-04T10:26:38.514Z,680.63
2017-10-04T10:27:38.434Z,630.00
2017-10-04T10:28:38.352Z,585.00
2017-10-04T10:29:38.289Z,545.63
2017-10-04T10:30:38.191Z,528.75
2017-10-04T10:31:38.113Z,517.50
2017-10-04T10:32:38.031Z,506.25
2017-10-04T10:33:37.958Z,500.63
2017-10-04T10:34:37.872Z,495.00
2017-10-04T10:35:37.797Z,478.13
2017-10-04T10:36:37.708Z,466.88
2017-10-04T10:37:37.646Z,461.25
2017-10-04T10:38:37.554Z,455.63
2017-10-04T10:39:37.464Z,455.63
2017-10-04T10:40:37.395Z,455.63
2017-10-04T10:41:37.304Z,478.13
2017-10-04T10:42:37.225Z,489.38
2017-10-04T10:43:37.145Z,506.25
2017-10-04T10:44:37.057Z,523.13
2017-10-04T10:45:36.981Z,551.25
2017-10-04T10:46:36.896Z,562.50
2017-10-04T10:47:36.815Z,590.63
2017-10-04T10:48:36.737Z,630.00
2017-10-04T10:49:36.653Z,652.50
2017-10-04T10:50:36.572Z,669.38
2017-10-04T10:51:36.486Z,686.25
2017-10-04T10:52:36.404Z,669.38
2017-10-04T10:53:36.328Z,641.25
2017-10-04T10:54:36.258Z,613.13
2017-10-04T10:55:36.162Z,596.25
2017-10-04T10:56:36.083Z,601.88
2017-10-04T10:57:35.997Z,607.50
2017-10-04T10:58:35.938Z,585.00
2017-10-04T10:59:35.844Z,573.75
2017-10-04T11:00:35.756Z,590.63
2017-10-04T11:01:35.686Z,551.25
2017-10-04T11:02:35.594Z,534.38
2017-10-04T11:03:35.518Z,528.75
2017-10-04T11:04:35.431Z,523.13
2017-10-04T11:05:35.361Z,511.88
2017-10-04T11:06:35.275Z,506.25
2017-10-04T11:07:35.196Z,489.38
2017-10-04T11:08:35.114Z,489.38
2017-10-04T11:09:35.027Z,495.00
2017-10-04T11:10:34.950Z,495.00
2017-10-04T11:11:34.884Z,506.25
2017-10-04T11:12:34.783Z,573.75
2017-10-04T11:13:34.720Z,697.50
2017-10-04T11:14:34.637Z,658.13
2017-10-04T11:15:34.549Z,607.50
2017-10-04T11:16:34.464Z,590.63
2017-10-04T11:17:34.384Z,635.63
2017-10-04T11:18:34.301Z,849.38
2017-10-04T11:19:34.217Z,1203.75
2017-10-04T11:20:34.138Z,1338.75
2017-10-04T11:21:34.054Z,1338.75
2017-10-04T11:22:33.973Z,1485.00
2017-10-04T11:23:33.898Z,1316.25
2017-10-04T11:24:33.818Z,1423.13
2017-10-04T11:25:33.738Z,1648.13
2017-10-04T11:26:33.659Z,1614.38
2017-10-04T11:27:33.578Z,1181.25
2017-10-04T11:28:33.499Z,1535.63
2017-10-04T11:29:33.419Z,1659.38
2017-10-04T11:30:33.351Z,1569.38
2017-10-04T11:31:33.280Z,1136.25
2017-10-04T11:32:33.183Z,877.50
2017-10-04T11:33:33.102Z,1406.25
2017-10-04T11:34:33.042Z,1563.75
2017-10-04T11:35:32.952Z,2058.75
2017-10-04T11:36:32.865Z,2407.50
2017-10-04T11:37:32.789Z,2221.88
2017-10-04T11:38:32.706Z,2621.25
2017-10-04T11:39:32.630Z,2205.00
2017-10-04T11:40:32.544Z,2058.75
2017-10-04T11:41:32.470Z,1136.25
2017-10-04T11:42:32.384Z,1029.38
2017-10-04T11:43:32.307Z,973.13
2017-10-04T11:44:32.242Z,933.75
2017-10-04T11:45:32.156Z,956.25
2017-10-04T11:46:32.084Z,933.75
2017-10-04T11:47:31.986Z,888.75
2017-10-04T11:48:31.908Z,883.13
2017-10-04T11:49:31.825Z,911.25
2017-10-04T11:50:31.752Z,838.13
2017-10-04T11:51:31.671Z,838.13
2017-10-04T11:52:31.587Z,849.38
2017-10-04T11:53:31.522Z,736.88
2017-10-04T11:54:31.424Z,781.88
2017-10-04T11:55:31.351Z,849.38
2017-10-04T11:56:31.271Z,838.13
2017-10-04T11:57:31.207Z,826.88
2017-10-04T11:58:31.123Z,748.13
2017-10-04T11:59:31.037Z,686.25
2017-10-04T12:00:30.980Z,703.13
2017-10-04T12:01:30.871Z,675.00
2017-10-04T12:02:30.791Z,708.75
2017-10-04T12:03:30.712Z,736.88
2017-10-04T12:04:30.642Z,725.63
2017-10-04T12:05:30.555Z,810.00
2017-10-04T12:06:30.471Z,765.00
2017-10-04T12:07:30.392Z,810.00
2017-10-04T12:08:30.315Z,781.88
2017-10-04T12:09:30.262Z,736.88
2017-10-04T12:10:30.167Z,770.63
2017-10-04T12:11:30.097Z,753.75
2017-10-04T12:12:30.006Z,618.75
2017-10-04T12:13:29.915Z,618.75
2017-10-04T12:14:29.835Z,635.63
2017-10-04T12:15:29.757Z,669.38
2017-10-04T12:16:29.675Z,641.25
2017-10-04T12:17:29.597Z,652.50
2017-10-04T12:18:29.518Z,669.38
2017-10-04T12:19:29.441Z,630.00
2017-10-04T12:20:29.362Z,601.88
2017-10-04T12:21:29.277Z,646.88
2017-10-04T12:22:29.201Z,596.25
2017-10-04T12:23:29.121Z,585.00
2017-10-04T12:24:29.042Z,624.38
2017-10-04T12:25:28.961Z,658.13
2017-10-04T12:26:28.896Z,641.25
2017-10-04T12:27:28.807Z,635.63
2017-10-04T12:28:28.756Z,635.63
2017-10-04T12:29:28.641Z,624.38
2017-10-04T12:30:28.567Z,613.13
2017-10-04T12:31:28.485Z,607.50
2017-10-04T12:32:28.404Z,579.38
2017-10-04T12:33:28.328Z,601.88
2017-10-04T12:34:28.257Z,556.88
2017-10-04T12:35:28.166Z,590.63
2017-10-04T12:36:28.086Z,585.00
2017-10-04T12:37:28.005Z,585.00
2017-10-04T12:38:27.927Z,579.38
2017-10-04T12:39:27.875Z,556.88
2017-10-04T12:40:27.770Z,568.13
2017-10-04T12:41:27.688Z,573.75
2017-10-04T12:42:27.606Z,585.00
2017-10-04T12:43:27.528Z,601.88
2017-10-04T12:44:27.449Z,590.63
2017-10-04T12:45:27.370Z,585.00
2017-10-04T12:46:27.291Z,568.13
2017-10-04T12:47:27.204Z,545.63
2017-10-04T12:48:27.123Z,556.88